Time;durP1;ratioP1;P1;durP2;ratioP2;P2;SDS_P1;SDS_P2;PMS_P1;PMS_P2;Temp;Humidity;BMP_temperature;BMP_pressure;BME280_temperature;BME280_humidity;BME280_pressure;Samples;Min_cycle;Max_cycle;Signal;HPM_P1;HPM_P2
2023/02/15 00:00:18;;;;;;;25.50;16.80;;;;;;;5.58;57.43;101921.75;5035553;27;96708;-91
2023/02/15 00:02:44;;;;;;;23.03;15.73;;;;;;;5.18;57.50;101850.97;5038290;27;97153;-93
2023/02/15 00:05:10;;;;;;;25.77;16.20;;;;;;;5.48;57.09;101899.09;5048470;27;100246;-90
2023/02/15 00:07:35;;;;;;;23.87;16.47;;;;;;;5.62;57.09;101927.03;5049166;27;98362;-91
2023/02/15 00:10:01;;;;;;;25.17;16.70;;;;;;;5.33;57.38;101884.16;5045560;27;96956;-91
2023/02/15 00:12:26;;;;;;;24.80;16.87;;;;;;;5.55;57.34;101912.19;5033541;27;97022;-91
2023/02/15 00:14:52;;;;;;;25.57;16.77;;;;;;;5.25;57.19;101863.22;5034925;27;99858;-91
2023/02/15 00:17:17;;;;;;;26.60;16.17;;;;;;;5.39;57.25;101886.81;5038726;27;101361;-91
2023/02/15 00:19:43;;;;;;;27.67;17.20;;;;;;;5.57;57.53;101926.09;5024071;27;96906;-91
2023/02/15 00:22:09;;;;;;;27.50;16.87;;;;;;;5.36;57.25;101887.66;5026110;27;96867;-90
2023/02/15 00:24:34;;;;;;;27.73;17.10;;;;;;;5.40;57.75;101894.63;5031484;27;100413;-91
2023/02/15 00:27:00;;;;;;;30.47;17.90;;;;;;;5.53;57.34;101919.13;5033094;27;100663;-91
2023/02/15 00:29:26;;;;;;;26.33;16.90;;;;;;;5.22;57.28;101863.16;5026432;27;97091;-91
2023/02/15 00:31:52;;;;;;;28.37;17.00;;;;;;;5.08;57.54;101838.69;5020958;27;97199;-91
2023/02/15 00:34:26;;;;;;;24.87;16.97;;;;;;;5.11;57.36;101843.94;5003917;28;99544;-91
2023/02/15 00:36:52;;;;;;;26.60;17.97;;;;;;;5.35;57.30;101888.53;5018712;27;100102;-91
2023/02/15 00:39:17;;;;;;;33.63;17.60;;;;;;;5.39;57.68;101899.84;5009302;27;97411;-91
2023/02/15 00:41:44;;;;;;;28.67;16.93;;;;;;;5.05;57.22;101834.31;5015668;28;96743;-91
2023/02/15 00:44:10;;;;;;;23.93;15.20;;;;;;;5.25;57.40;101870.16;5013673;27;97216;-91
2023/02/15 00:46:36;;;;;;;25.73;16.70;;;;;;;5.37;57.73;101901.53;5018414;27;99884;-91
2023/02/15 00:49:01;;;;;;;27.00;16.80;;;;;;;5.03;57.40;101848.16;5012922;27;97149;-91
2023/02/15 00:51:27;;;;;;;28.53;17.97;;;;;;;5.31;57.22;101902.34;5021718;28;97123;-90
2023/02/15 00:53:53;;;;;;;26.70;16.27;;;;;;;5.09;57.52;101863.84;5035862;28;101189;-91
2023/02/15 00:56:19;;;;;;;26.90;16.77;;;;;;;5.21;57.52;101890.06;5011341;28;99901;-91
2023/02/15 00:58:45;;;;;;;29.80;17.60;;;;;;;5.23;57.39;101901.34;5016069;28;96814;-91
2023/02/15 01:01:14;;;;;;;32.20;17.50;;;;;;;5.24;57.23;101910.06;5028872;27;96849;-92
2023/02/15 01:03:41;;;;;;;25.17;16.60;;;;;;;4.96;57.14;101870.63;4988492;28;101704;-91
2023/02/15 01:06:08;;;;;;;28.50;18.30;;;;;;;4.93;57.68;101863.66;5023069;27;101573;-91
2023/02/15 01:08:34;;;;;;;26.83;16.90;;;;;;;4.92;57.50;101872.34;5001265;28;96758;-91
2023/02/15 01:11:05;;;;;;;27.63;17.43;;;;;;;5.06;57.90;101897.66;5044667;27;96816;-91
2023/02/15 01:13:31;;;;;;;31.50;18.70;;;;;;;5.10;58.04;101902.06;4995038;28;100235;-91
2023/02/15 01:15:56;;;;;;;28.13;18.63;;;;;;;4.75;57.82;101861.69;5033628;28;101867;-91
2023/02/15 01:18:22;;;;;;;30.13;18.50;;;;;;;4.91;57.85;101888.78;5010453;27;96771;-91
2023/02/15 01:20:48;;;;;;;30.33;18.20;;;;;;;4.95;58.00;101902.72;5001282;28;99615;-91
2023/02/15 01:23:14;;;;;;;29.57;18.67;;;;;;;4.70;58.10;101852.94;5015715;27;101764;-91
2023/02/15 01:25:39;;;;;;;31.43;19.43;;;;;;;4.89;58.04;101890.50;5024774;27;100856;-91
2023/02/15 01:28:05;;;;;;;32.50;18.80;;;;;;;4.87;58.13;101878.31;5022264;27;96749;-92
2023/02/15 01:30:31;;;;;;;29.07;18.73;;;;;;;4.86;58.05;101872.25;5036939;27;97156;-91
2023/02/15 01:32:57;;;;;;;28.67;18.87;;;;;;;4.83;58.32;101879.13;5037073;27;100947;-90
2023/02/15 01:35:23;;;;;;;31.33;20.47;;;;;;;4.69;58.16;101850.31;5049323;27;98820;-91
2023/02/15 01:37:49;;;;;;;31.47;20.47;;;;;;;4.75;58.21;101866.00;5057331;27;96729;-91
2023/02/15 01:40:17;;;;;;;32.37;19.37;;;;;;;4.79;58.02;101866.94;5058918;27;96901;-91
2023/02/15 01:42:43;;;;;;;34.23;20.50;;;;;;;4.78;58.44;101871.25;5038198;27;100219;-91
2023/02/15 01:45:31;;;;;;;35.23;21.60;;;;;;;4.73;58.38;101858.16;5037195;27;100064;-92
2023/02/15 01:47:56;;;;;;;34.20;20.17;;;;;;;4.71;58.57;101853.78;5030012;27;96782;-92
2023/02/15 01:50:28;;;;;;;35.00;21.77;;;;;;;4.59;58.58;101833.69;5047115;27;96890;-91
2023/02/15 01:53:15;;;;;;;37.60;22.23;;;;;;;4.66;58.68;101845.06;5054903;27;100575;-91
2023/02/15 01:55:47;;;;;;;43.90;24.30;;;;;;;4.51;58.37;101820.59;5049535;27;101577;-91
2023/02/15 01:58:14;;;;;;;36.10;22.63;;;;;;;4.58;58.29;101839.75;5037350;27;96678;-91
2023/02/15 02:00:40;;;;;;;36.47;22.17;;;;;;;4.58;58.43;101831.06;5031412;27;96941;-91
2023/02/15 02:03:06;;;;;;;42.13;24.77;;;;;;;4.43;58.48;101808.31;5038568;27;101344;-92
2023/02/15 02:05:32;;;;;;;43.40;25.27;;;;;;;4.57;58.58;101829.31;5040547;27;99972;-92
2023/02/15 02:07:59;;;;;;;47.30;25.87;;;;;;;4.57;58.47;101831.91;5041239;27;97383;-92
2023/02/15 02:10:25;;;;;;;43.03;24.80;;;;;;;4.41;58.78;101804.81;5040779;27;97155;-91
2023/02/15 02:12:58;;;;;;;38.20;23.73;;;;;;;4.48;58.89;101824.84;5057653;27;100742;-92
2023/02/15 02:15:36;;;;;;;45.10;24.17;;;;;;;4.45;58.77;101827.41;5057633;27;100700;-91
2023/02/15 02:18:23;;;;;;;42.07;24.83;;;;;;;4.43;58.92;101832.59;5056728;27;96980;-91
2023/02/15 02:21:08;;;;;;;40.93;24.13;;;;;;;4.46;59.28;101824.84;5037406;27;97331;-91
2023/02/15 02:23:48;;;;;;;49.10;26.30;;;;;;;4.45;58.91;101827.41;5045853;27;101468;-91
2023/02/15 02:26:38;;;;;;;45.13;26.00;;;;;;;4.43;59.29;101818.72;5047089;27;100912;-92
2023/02/15 02:29:33;;;;;;;48.17;25.83;;;;;;;4.44;59.26;101817.88;5045772;27;97097;-92
2023/02/15 02:32:01;;;;;;;54.10;28.13;;;;;;;4.29;59.17;101785.56;5048097;27;98001;-91
2023/02/15 02:34:42;;;;;;;50.50;27.03;;;;;;;4.37;59.45;101801.31;5070524;27;100134;-91
2023/02/15 02:37:19;;;;;;;49.10;28.87;;;;;;;4.14;59.76;101772.34;5078678;27;97307;-92
2023/02/15 02:39:54;;;;;;;54.43;28.67;;;;;;;4.21;59.77;101788.91;5036594;27;97118;-92
2023/02/15 02:42:28;;;;;;;49.77;27.37;;;;;;;4.16;60.03;101786.25;5049294;27;96702;-91
2023/02/15 02:45:13;;;;;;;48.73;26.10;;;;;;;4.06;60.12;101787.81;5035212;27;101585;-92
2023/02/15 02:47:45;;;;;;;48.57;27.83;;;;;;;4.02;60.61;101779.97;5040227;27;100228;-91
2023/02/15 02:50:17;;;;;;;49.73;27.13;;;;;;;3.99;60.74;101780.78;5057193;27;96733;-92
2023/02/15 02:52:48;;;;;;;49.13;28.10;;;;;;;3.99;60.77;101777.31;5026949;27;96791;-92
2023/02/15 02:55:38;;;;;;;48.10;26.97;;;;;;;3.78;60.75;101755.34;5036157;27;100388;-91
2023/02/15 02:58:07;;;;;;;50.07;28.03;;;;;;;3.82;60.83;101774.44;5039005;27;100545;-91
2023/02/15 03:00:42;;;;;;;47.60;26.47;;;;;;;3.89;60.93;101775.41;5046890;27;96769;-91
2023/02/15 03:03:44;;;;;;;54.57;28.50;;;;;;;3.82;61.19;101771.84;5057607;27;96916;-91
2023/02/15 03:06:22;;;;;;;45.67;26.20;;;;;;;3.90;61.01;101769.34;5004382;27;98668;-92
2023/02/15 03:09:16;;;;;;;47.87;27.17;;;;;;;3.83;61.09;101763.19;5040488;27;101546;-91
2023/02/15 03:11:44;;;;;;;48.53;27.53;;;;;;;3.88;60.71;101771.06;5055856;27;97096;-92
2023/02/15 03:14:10;;;;;;;50.00;27.77;;;;;;;3.94;60.62;101771.16;5046809;27;97056;-92
2023/02/15 03:16:37;;;;;;;46.03;26.27;;;;;;;3.99;60.59;101775.59;5040224;27;101368;-92
2023/02/15 03:19:09;;;;;;;49.37;26.40;;;;;;;3.94;60.69;101772.03;5039942;27;101593;-92
2023/02/15 03:21:49;;;;;;;;;;;;;;;3.91;60.71;101776.31;5051252;27;96814;-92
2023/02/15 03:24:21;;;;;;;43.27;24.33;;;;;;;3.93;60.53;101772.03;5031440;27;96830;-91
2023/02/15 03:26:51;;;;;;;48.60;25.50;;;;;;;3.94;60.42;101769.44;5030855;27;101088;-92
2023/02/15 03:29:19;;;;;;;50.37;26.80;;;;;;;3.94;60.52;101766.84;5005234;28;101305;-92
2023/02/15 03:31:47;;;;;;;42.13;23.77;;;;;;;3.97;60.48;101771.22;5033969;27;95943;-91
2023/02/15 03:34:13;;;;;;;41.07;23.80;;;;;;;3.93;60.27;101761.63;5021722;27;96688;-92
2023/02/15 03:36:45;;;;;;;42.03;25.33;;;;;;;3.99;60.26;101772.13;5001998;27;101824;-92
2023/02/15 03:39:19;;;;;;;46.35;25.05;;;;;;;3.99;60.33;101769.53;5002898;27;99284;-91
2023/02/15 03:41:50;;;;;;;42.77;23.90;;;;;;;3.95;60.55;101770.31;5019374;27;97081;-92
2023/02/15 03:44:20;;;;;;;42.17;24.77;;;;;;;3.97;60.51;101771.22;5003117;27;96918;-92
2023/02/15 03:46:57;;;;;;;40.33;23.00;;;;;;;3.93;60.45;101766.84;5018550;27;99878;-91
2023/02/15 03:49:42;;;;;;;43.30;24.60;;;;;;;3.97;60.21;101760.81;5029129;27;101234;-92
2023/02/15 03:52:08;;;;;;;40.90;24.83;;;;;;;3.86;60.30;101750.25;5014577;27;97377;-91
2023/02/15 03:54:47;;;;;;;43.80;24.83;;;;;;;3.94;60.22;101765.97;5002128;27;96767;-91
2023/02/15 04:02:59;;;;;;;42.80;24.40;;;;;;;3.86;60.34;101771.03;5017826;28;97016;-90
2023/02/15 04:05:24;;;;;;;42.70;23.53;;;;;;;3.83;60.49;101763.19;5013510;28;96742;-92
2023/02/15 04:07:50;;;;;;;45.30;24.73;;;;;;;3.82;60.46;101764.91;5017751;27;101759;-91
2023/02/15 04:13:00;;;;;;;47.97;25.63;;;;;;;3.67;60.86;101756.88;5049451;27;97285;-93
2023/02/15 04:18:09;;;;;;;39.73;23.83;;;;;;;3.70;60.91;101763.84;5021352;27;101236;-91
2023/02/15 04:26:04;;;;;;;42.27;24.13;;;;;;;3.66;61.05;101749.91;5047098;27;97489;-92
2023/02/15 04:28:30;;;;;;;41.63;25.57;;;;;;;3.63;60.77;101742.94;5045614;27;100561;-91
2023/02/15 04:30:56;;;;;;;43.83;23.67;;;;;;;3.47;61.06;101724.50;5041629;27;101214;-92
2023/02/15 04:33:22;;;;;;;47.87;24.43;;;;;;;3.70;61.05;101751.72;5043732;27;97137;-92
2023/02/15 04:35:48;;;;;;;44.47;24.27;;;;;;;3.65;61.19;101749.91;5035531;27;97234;-92
2023/02/15 04:38:13;;;;;;;46.07;25.90;;;;;;;3.50;61.19;101712.44;5032945;27;101588;-92
2023/02/15 04:40:39;;;;;;;44.53;24.10;;;;;;;3.64;61.17;101741.25;5035030;27;100915;-92
2023/02/15 04:43:05;;;;;;;42.63;23.87;;;;;;;3.65;60.90;101744.72;5059663;27;96694;-92
2023/02/15 04:45:30;;;;;;;43.53;24.30;;;;;;;3.47;61.33;101714.97;5081311;27;95967;-91
2023/02/15 04:47:56;;;;;;;39.03;23.10;;;;;;;3.55;61.42;101735.88;5062680;27;100053;-93
2023/02/15 04:50:21;;;;;;;43.50;25.03;;;;;;;3.05;61.41;101658.84;5043397;27;99720;-93
2023/02/15 04:52:47;;;;;;;46.27;24.17;;;;;;;3.33;61.67;101706.94;5040875;27;97189;-93
2023/02/15 04:55:14;;;;;;;43.63;24.63;;;;;;;3.30;61.91;101726.78;5043920;27;97177;-92
2023/02/15 04:57:39;;;;;;;44.90;24.97;;;;;;;3.35;62.11;101735.53;5056901;27;100989;-93
2023/02/15 05:00:08;;;;;;;46.67;24.43;;;;;;;3.30;62.03;101745.81;5040756;27;100649;-93
2023/02/15 05:02:34;;;;;;;40.60;21.57;;;;;;;3.17;62.25;101736.03;5054043;27;96974;-92
2023/02/15 05:04:59;;;;;;;41.97;23.90;;;;;;;3.29;62.37;101745.81;5043575;27;96946;-93
2023/02/15 05:07:25;;;;;;;38.83;23.37;;;;;;;3.21;62.29;101745.66;5047618;27;99456;-93
2023/02/15 05:09:50;;;;;;;40.13;23.33;;;;;;;3.18;62.64;101746.47;5037694;27;101344;-93
2023/02/15 05:12:16;;;;;;;39.57;23.60;;;;;;;3.26;62.36;101746.63;5057955;27;97079;-93
2023/02/15 05:14:42;;;;;;;44.80;23.13;;;;;;;3.05;62.21;101713.34;5048831;27;96890;-93
2023/02/15 05:17:07;;;;;;;38.63;23.20;;;;;;;3.28;62.41;101747.50;5036970;27;100814;-92
2023/02/15 05:19:33;;;;;;;42.27;23.50;;;;;;;3.31;62.05;101754.47;5037929;27;101113;-92
2023/02/15 05:21:59;;;;;;;46.50;24.50;;;;;;;3.24;62.07;101747.44;5034485;27;96762;-92
2023/02/15 05:29:55;;;;;;;40.87;23.83;;;;;;;3.16;62.10;101730.00;5041398;27;101702;-93
2023/02/15 05:32:20;;;;;;;37.47;21.43;;;;;;;3.22;62.26;101736.16;5039458;27;97078;-92
2023/02/15 05:34:46;;;;;;;42.57;23.07;;;;;;;3.06;62.07;101701.25;5038575;27;97393;-92
2023/02/15 05:37:11;;;;;;;39.00;22.93;;;;;;;3.23;62.00;101732.69;5027315;27;101309;-92
2023/02/15 05:39:37;;;;;;;43.77;23.63;;;;;;;3.20;62.04;101715.38;5041114;27;99842;-94
2023/02/15 05:42:03;;;;;;;39.40;23.57;;;;;;;3.13;61.91;101696.19;5031786;27;96775;-92
2023/02/15 05:44:29;;;;;;;38.53;22.57;;;;;;;3.18;61.88;101710.13;5037896;27;96675;-92
2023/02/15 05:46:55;;;;;;;42.60;24.50;;;;;;;3.31;61.87;101734.59;5047657;27;100528;-90
2023/02/15 05:49:20;;;;;;;40.93;23.10;;;;;;;3.31;61.68;101728.53;5051203;27;100961;-90
2023/02/15 05:51:46;;;;;;;43.47;22.97;;;;;;;3.33;61.98;101727.72;5032608;27;96938;-90
2023/02/15 05:54:12;;;;;;;38.13;22.13;;;;;;;3.28;61.82;101718.97;5054157;27;96757;-85
2023/02/15 05:56:38;;;;;;;41.73;23.60;;;;;;;3.26;61.55;101720.69;5028647;27;101367;-89
2023/02/15 05:59:03;;;;;;;42.17;24.30;;;;;;;3.28;61.69;101718.09;5044899;27;100360;-82
2023/02/15 06:01:29;;;;;;;41.93;24.30;;;;;;;3.20;61.48;101710.19;5053226;27;96732;-84
2023/02/15 06:03:55;;;;;;;42.13;24.70;;;;;;;3.25;61.58;101738.78;5036700;27;96959;-83
2023/02/15 06:06:21;;;;;;;40.77;23.20;;;;;;;3.21;61.70;101730.09;5049386;27;97801;-84
2023/02/15 06:08:46;;;;;;;42.10;24.60;;;;;;;3.18;61.53;101730.91;5047431;27;101441;-84
2023/02/15 06:11:12;;;;;;;44.83;25.50;;;;;;;3.14;61.80;101733.41;5055158;27;97236;-83
2023/02/15 06:13:38;;;;;;;45.93;26.27;;;;;;;2.91;61.67;101713.09;5048107;27;96925;-84
2023/02/15 06:16:03;;;;;;;43.23;24.07;;;;;;;3.00;62.24;101734.88;5024231;27;101429;-84
2023/02/15 06:18:29;;;;;;;44.97;24.47;;;;;;;2.94;62.04;101725.25;5033306;27;101113;-83
2023/02/15 06:20:54;;;;;;;44.03;24.47;;;;;;;2.96;62.50;101726.13;5026679;27;96770;-84
2023/02/15 06:23:20;;;;;;;40.07;24.07;;;;;;;3.05;61.77;101744.47;5059166;27;96986;-83
2023/02/15 06:25:46;;;;;;;43.73;23.90;;;;;;;3.06;62.56;101751.44;5042177;27;98904;-84
2023/02/15 06:28:12;;;;;;;46.00;25.77;;;;;;;2.92;62.45;101734.72;5047867;27;101240;-84
2023/02/15 06:30:37;;;;;;;42.23;24.40;;;;;;;2.96;62.58;101744.31;5036731;27;97244;-84
2023/02/15 06:33:03;;;;;;;41.20;24.70;;;;;;;2.91;62.45;101744.22;5034423;27;97382;-83
2023/02/15 06:35:28;;;;;;;44.87;26.13;;;;;;;3.01;62.76;101740.09;5044073;27;101691;-83
2023/02/15 06:37:54;;;;;;;40.37;23.30;;;;;;;3.11;62.54;101747.22;5054585;27;101651;-83
2023/02/15 06:40:19;;;;;;;49.47;25.30;;;;;;;3.18;62.42;101745.59;5035423;27;96828;-78
2023/02/15 06:42:46;;;;;;;42.23;24.57;;;;;;;3.18;61.99;101738.69;5050715;27;97215;-80
2023/02/15 06:45:11;;;;;;;43.73;25.40;;;;;;;3.07;62.13;101715.97;5063996;27;98585;-79
2023/02/15 06:47:37;;;;;;;45.03;25.33;;;;;;;3.24;61.93;101735.34;5048630;27;101262;-86
2023/02/15 06:50:06;;;;;;;47.63;25.63;;;;;;;3.17;62.10;101725.66;5032605;27;97334;-84
2023/02/15 06:52:32;;;;;;;41.83;24.53;;;;;;;3.12;62.32;101711.75;5040098;27;97587;-86
2023/02/15 06:54:57;;;;;;;48.23;26.40;;;;;;;3.27;61.55;101742.31;5048023;27;101573;-86
2023/02/15 06:57:23;;;;;;;43.30;25.43;;;;;;;3.27;62.45;101739.72;5045142;27;101446;-86
2023/02/15 06:59:49;;;;;;;44.83;25.33;;;;;;;3.18;62.00;101733.50;5038134;27;97152;-85
2023/02/15 07:02:14;;;;;;;44.57;26.83;;;;;;;3.22;62.42;101741.34;5034682;27;97003;-83
2023/02/15 07:04:40;;;;;;;42.20;24.27;;;;;;;3.16;62.38;101732.59;5047167;27;101144;-85
2023/02/15 07:07:10;;;;;;;44.00;25.60;;;;;;;3.17;62.21;101725.66;5032670;27;101345;-85
2023/02/15 07:09:36;;;;;;;44.80;25.83;;;;;;;3.22;62.27;101737.00;5049285;27;96860;-84
2023/02/15 07:14:47;;;;;;;53.63;28.90;;;;;;;3.31;62.42;101725.94;5060834;27;98456;-85
2023/02/15 07:17:17;;;;;;;48.30;27.53;;;;;;;2.90;62.60;101651.66;5032694;27;97867;-83
2023/02/15 07:19:43;;;;;;;47.83;26.03;;;;;;;3.16;62.70;101700.56;5034141;27;96843;-85
2023/02/15 07:22:08;;;;;;;45.43;25.87;;;;;;;3.31;62.63;101718.16;5051882;27;97378;-84
2023/02/15 07:24:34;;;;;;;42.70;25.53;;;;;;;3.35;62.75;101713.03;5032095;27;100347;-89
2023/02/15 07:27:00;;;;;;;43.40;26.87;;;;;;;3.49;62.69;101710.69;5033713;27;101754;-89
2023/02/15 07:29:25;;;;;;;43.80;26.97;;;;;;;3.60;62.42;101700.47;5035770;27;97208;-89
2023/02/15 07:31:52;;;;;;;46.80;25.63;;;;;;;3.87;62.42;101710.44;5029806;27;97751;-90
2023/02/15 07:34:18;;;;;;;45.87;25.63;;;;;;;4.09;62.25;101711.63;5045473;27;100700;-90
2023/02/15 07:36:44;;;;;;;39.17;23.53;;;;;;;4.23;61.65;101717.03;5036785;27;100071;-83
2023/02/15 07:39:10;;;;;;;41.57;24.53;;;;;;;4.38;61.55;101708.56;5044098;27;96724;-87
2023/02/15 07:41:36;;;;;;;43.77;24.93;;;;;;;4.57;61.47;101717.47;5035287;27;97439;-85
2023/02/15 07:44:13;;;;;;;39.93;24.40;;;;;;;4.73;61.19;101712.47;5046153;27;101406;-92
2023/02/15 07:46:39;;;;;;;39.43;23.60;;;;;;;4.89;61.08;101699.69;5051870;27;97352;-90
2023/02/15 07:49:05;;;;;;;41.63;23.50;;;;;;;4.78;60.53;101646.66;5047033;27;96636;-91
2023/02/15 07:51:30;;;;;;;40.50;24.03;;;;;;;5.20;60.25;101693.03;5043885;27;96953;-90
2023/02/15 07:53:56;;;;;;;35.47;23.37;;;;;;;5.35;60.10;101681.91;5058458;27;101225;-90
2023/02/15 07:56:21;;;;;;;37.87;22.97;;;;;;;5.54;59.68;101677.72;5050605;27;101643;-90
2023/02/15 07:58:55;;;;;;;39.80;24.50;;;;;;;5.73;59.38;101674.41;5034622;27;97262;-91
2023/02/15 08:01:27;;;;;;;39.70;24.77;;;;;;;5.87;59.04;101659.72;5072454;27;97216;-91
2023/02/15 08:03:56;;;;;;;42.93;25.33;;;;;;;6.08;58.19;101674.69;5023595;27;101173;-90
2023/02/15 08:06:24;;;;;;;48.23;28.90;;;;;;;6.01;57.95;101654.63;5041799;27;101813;-90
2023/02/15 08:08:50;;;;;;;46.60;25.53;;;;;;;6.10;57.86;101656.44;5072793;27;97119;-90
2023/02/15 08:11:26;;;;;;;42.07;27.03;;;;;;;6.23;57.60;101653.03;5050886;27;96927;-90
2023/02/15 08:13:59;;;;;;;43.00;23.87;;;;;;;6.36;57.25;101659.16;5052979;27;98942;-90
2023/02/15 08:16:37;;;;;;;42.43;24.23;;;;;;;6.60;56.67;101683.63;5038653;27;100306;-87
2023/02/15 08:19:07;;;;;;;39.73;24.47;;;;;;;6.55;56.57;101678.41;5026347;27;99330;-89
2023/02/15 08:21:33;;;;;;;34.17;21.27;;;;;;;6.52;57.10;101641.88;5037331;27;96939;-89
2023/02/15 08:23:59;;;;;;;38.67;22.47;;;;;;;6.75;56.49;101634.97;5042704;27;100246;-89
2023/02/15 08:26:27;;;;;;;36.10;23.50;;;;;;;6.95;56.31;101655.91;5068372;27;97737;-90
2023/02/15 08:28:53;;;;;;;39.70;23.02;;;;;;;7.11;56.24;101661.16;5042236;27;96768;-89
2023/02/15 08:31:19;;;;;;;39.60;21.95;;;;;;;7.33;55.77;101651.56;5071801;27;97120;-89
2023/02/15 08:33:45;;;;;;;36.08;22.73;;;;;;;7.29;55.80;101626.34;5033262;27;100005;-89
2023/02/15 08:36:15;;;;;;;38.60;22.27;;;;;;;7.66;54.62;101651.59;5050106;27;98099;-89
2023/02/15 08:38:42;;;;;;;33.63;21.40;;;;;;;7.72;54.34;101653.31;5034139;27;96905;-89
2023/02/15 08:41:22;;;;;;;31.00;21.08;;;;;;;7.85;52.99;101639.38;5018431;27;96824;-89
2023/02/15 08:43:53;;;;;;;35.88;21.63;;;;;;;7.89;52.84;101650.69;5036320;27;102064;-87
2023/02/15 08:46:19;;;;;;;32.60;21.38;;;;;;;7.83;52.35;101607.13;5054422;27;101727;-86
2023/02/15 08:48:45;;;;;;;32.20;20.65;;;;;;;8.36;52.05;101641.84;5028900;27;96825;-89
2023/02/15 08:51:20;;;;;;;29.83;21.27;;;;;;;8.35;51.99;101630.50;5050595;27;97212;-88
2023/02/15 08:53:50;;;;;;;32.40;22.73;;;;;;;8.72;51.76;101634.72;5031144;27;101340;-87
2023/02/15 08:56:17;;;;;;;34.10;22.65;;;;;;;9.29;49.78;101633.44;5037201;27;100947;-87
2023/02/15 08:58:43;;;;;;;42.00;26.13;;;;;;;9.74;48.31;101636.56;5031866;27;96866;-87
2023/02/15 09:01:23;;;;;;;39.90;25.70;;;;;;;9.59;49.92;101631.44;5037485;27;97556;-86
2023/02/15 09:03:52;;;;;;;37.47;22.75;;;;;;;10.02;48.16;101619.66;5033941;27;100039;-86
2023/02/15 09:06:18;;;;;;;43.03;26.95;;;;;;;9.93;47.90;101607.53;5034170;27;98585;-86
2023/02/15 09:08:44;;;;;;;52.15;30.50;;;;;;;10.30;46.60;101601.88;5033534;27;96806;-86
2023/02/15 09:11:16;;;;;;;47.22;30.27;;;;;;;10.33;46.46;101607.09;5044708;27;96801;-75
2023/02/15 09:13:42;;;;;;;41.58;28.02;;;;;;;10.07;47.42;101626.59;5058932;27;101757;-79
2023/02/15 09:16:09;;;;;;;40.05;27.05;;;;;;;10.17;47.55;101614.22;5045320;27;97710;-79
2023/02/15 09:18:37;;;;;;;78.28;46.00;;;;;;;10.36;47.86;101613.16;5030861;27;97495;-80
2023/02/15 09:21:13;;;;;;;32.72;23.63;;;;;;;10.56;47.03;101610.28;5034094;27;97150;-80
2023/02/15 09:23:40;;;;;;;36.47;25.40;;;;;;;10.95;46.97;101594.84;5031387;27;101521;-80
2023/02/15 09:26:14;;;;;;;29.92;21.08;;;;;;;11.68;44.86;101597.13;5050372;27;101039;-80
2023/02/15 09:28:39;;;;;;;35.10;23.23;;;;;;;11.93;45.14;101606.31;5067314;27;96776;-83
2023/02/15 09:31:14;;;;;;;27.75;21.98;;;;;;;12.19;43.40;101607.56;5061998;27;96848;-79
2023/02/15 09:33:41;;;;;;;28.20;21.98;;;;;;;12.52;43.33;101584.91;5038583;27;97992;-79
2023/02/15 09:36:15;;;;;;;30.55;21.45;;;;;;;12.76;42.46;101556.28;5044909;27;97795;-78
2023/02/15 09:38:40;;;;;;;29.20;20.58;;;;;;;13.32;41.14;101597.13;5031190;27;97527;-79
2023/02/15 09:41:09;;;;;;;40.75;28.15;;;;;;;13.87;41.06;101602.69;5033938;27;96918;-78
2023/02/15 09:44:07;;;;;;;46.35;31.55;;;;;;;14.33;39.70;101592.63;5045144;27;100406;-81
2023/02/15 09:46:38;;;;;;;40.17;28.38;;;;;;;14.85;38.04;101585.78;5062570;27;98033;-83
2023/02/15 09:49:15;;;;;;;31.95;24.40;;;;;;;14.60;38.70;101557.47;5052889;27;97571;-80
2023/02/15 09:51:56;;;;;;;31.60;23.77;;;;;;;14.78;38.90;101587.75;5033263;27;96810;-82
2023/02/15 09:54:25;;;;;;;;;;;;;;;14.64;37.97;101590.81;5051614;27;101593;-81
2023/02/15 09:57:06;;;;;;;28.58;23.38;;;;;;;14.99;38.66;101590.63;5040061;27;101778;-82
2023/02/15 09:59:39;;;;;;;27.25;21.65;;;;;;;15.53;37.56;101589.69;5028560;27;97111;-81
2023/02/15 10:02:38;;;;;;;27.52;22.33;;;;;;;15.26;37.32;101586.19;5066986;27;96934;-82
2023/02/15 10:05:06;;;;;;;25.75;21.45;;;;;;;15.43;36.85;101578.56;5033544;27;101970;-82
2023/02/15 10:08:09;;;;;;;26.70;21.20;;;;;;;15.60;36.41;101576.19;5043235;27;101750;-81
2023/02/15 10:10:35;;;;;;;26.92;20.90;;;;;;;15.52;37.45;101572.09;5039091;27;96832;-82
2023/02/15 10:13:08;;;;;;;24.17;19.60;;;;;;;15.70;36.65;101554.72;5048286;27;97353;-82
2023/02/15 10:15:44;;;;;;;27.90;21.60;;;;;;;15.66;37.48;101564.53;5059332;27;97756;-82
2023/02/15 10:18:34;;;;;;;25.52;20.55;;;;;;;15.28;37.66;101557.91;5027794;27;101364;-83
2023/02/15 10:21:21;;;;;;;23.05;18.85;;;;;;;14.67;38.63;101561.66;5067309;27;98629;-82
2023/02/15 10:24:05;;;;;;;24.05;19.02;;;;;;;14.33;39.08;101556.50;5053723;27;97523;-83
2023/02/15 10:26:34;;;;;;;24.90;19.55;;;;;;;14.07;39.68;101553.75;5051108;27;100404;-82
2023/02/15 10:29:07;;;;;;;30.67;22.35;;;;;;;14.11;39.97;101552.75;5043222;27;98089;-83
2023/02/15 10:31:50;;;;;;;25.80;20.45;;;;;;;13.58;40.67;101548.97;5008813;27;99320;-82
2023/02/15 10:34:20;;;;;;;28.90;21.75;;;;;;;13.31;41.30;101545.28;5012560;27;97057;-82
2023/02/15 10:36:56;;;;;;;29.33;23.02;;;;;;;13.09;42.22;101549.34;5011088;27;101186;-82
2023/02/15 10:40:00;;;;;;;27.42;21.05;;;;;;;12.73;42.85;101551.09;5017412;27;101338;-83
2023/02/15 10:42:41;;;;;;;28.20;21.30;;;;;;;12.43;42.64;101548.25;5026623;27;96836;-84
2023/02/15 10:45:24;;;;;;;33.30;23.47;;;;;;;12.39;42.62;101544.84;5053117;27;97334;-82
2023/02/15 10:47:59;;;;;;;32.10;22.17;;;;;;;11.88;43.46;101550.28;4994737;27;101475;-83
2023/02/15 10:50:44;;;;;;;31.58;23.48;;;;;;;11.53;44.21;101536.00;4999945;27;101590;-84
2023/02/15 10:53:31;;;;;;;32.08;23.92;;;;;;;11.06;45.29;101537.72;5027650;28;96813;-83
2023/02/15 10:56:07;;;;;;;36.53;25.55;;;;;;;10.85;45.94;101546.84;5022057;27;97306;-83
2023/02/15 10:59:10;;;;;;;33.05;23.10;;;;;;;10.88;45.85;101535.41;4987999;28;101518;-84
2023/02/15 11:01:42;;;;;;;29.13;22.67;;;;;;;10.67;45.91;101509.47;5022874;27;101435;-84
2023/02/15 11:04:16;;;;;;;29.45;22.70;;;;;;;10.51;46.81;101522.84;5025029;27;97210;-83
2023/02/15 11:06:48;;;;;;;31.60;21.83;;;;;;;10.27;46.99;101491.66;5032456;27;97497;-84
2023/02/15 11:09:16;;;;;;;29.98;22.80;;;;;;;10.37;47.39;101517.78;4997533;27;101872;-84
2023/02/15 11:11:46;;;;;;;34.65;23.25;;;;;;;10.43;47.29;101522.94;4998268;27;100925;-83
2023/02/15 11:14:20;;;;;;;37.15;24.67;;;;;;;10.18;48.24;101513.63;5016684;27;96818;-83
2023/02/15 11:16:52;;;;;;;34.42;25.02;;;;;;;9.92;48.74;101507.00;5017175;27;96795;-83
2023/02/15 11:19:19;;;;;;;;;;;;;;;9.78;48.87;101500.19;5004039;27;98135;-86
2023/02/15 11:21:53;;;;;;;35.35;24.25;;;;;;;9.73;49.19;101482.72;4996884;27;100877;-84
2023/02/15 11:24:22;;;;;;;44.25;29.35;;;;;;;10.10;49.23;101494.53;5008303;27;97529;-84
2023/02/15 11:26:59;;;;;;;50.67;33.13;;;;;;;10.02;49.26;101491.13;5035842;27;97342;-84
2023/02/15 11:29:32;;;;;;;44.38;29.33;;;;;;;9.65;50.13;101504.69;5046207;27;100206;-83
2023/02/15 11:32:20;;;;;;;40.97;25.70;;;;;;;9.43;50.36;101504.06;5049561;27;99731;-84
2023/02/15 11:34:55;;;;;;;32.50;23.60;;;;;;;9.14;51.38;101492.13;5022709;27;97210;-83
2023/02/15 11:37:24;;;;;;;35.22;25.20;;;;;;;9.19;51.50;101492.94;5032283;27;97040;-84
2023/02/15 11:39:54;;;;;;;33.08;23.13;;;;;;;9.05;51.71;101448.53;5037050;27;101494;-84
2023/02/15 11:42:24;;;;;;;36.72;23.67;;;;;;;9.10;50.88;101445.84;5033642;27;101502;-84
2023/02/15 11:45:23;;;;;;;32.80;23.95;;;;;;;9.20;51.37;101475.47;5044999;27;96741;-84
2023/02/15 11:47:49;;;;;;;34.67;24.17;;;;;;;9.16;51.97;101477.25;5014317;27;97148;-84
2023/02/15 11:50:18;;;;;;;36.15;23.88;;;;;;;9.24;52.02;101475.41;5040688;27;101131;-84
2023/02/15 11:52:43;;;;;;;35.97;23.98;;;;;;;9.19;51.84;101458.00;5043174;27;100774;-83